createdAt,value
2022-09-20T00:01:12.963Z,10.10
2022-09-20T00:03:42.606Z,10.20
2022-09-20T00:06:14.625Z,10.20
2022-09-20T00:08:42.358Z,10.10
2022-09-20T00:11:30.922Z,10.10
2022-09-20T00:13:59.167Z,10.10
2022-09-20T00:16:28.965Z,10.10
2022-09-20T00:18:57.592Z,10.10
2022-09-20T00:21:27.724Z,10.10
2022-09-20T00:23:56.703Z,10.10
2022-09-20T00:26:24.144Z,10.10
2022-09-20T00:28:51.911Z,10.10
2022-09-20T00:31:19.310Z,10.00
2022-09-20T00:34:05.043Z,10.00
2022-09-20T00:36:31.805Z,10.00
2022-09-20T00:39:01.548Z,10.00
2022-09-20T00:41:29.646Z,9.90
2022-09-20T00:43:57.376Z,9.90
2022-09-20T00:46:37.973Z,9.90
2022-09-20T00:49:18.707Z,9.90
2022-09-20T00:51:51.150Z,9.90
2022-09-20T00:54:20.646Z,9.90
2022-09-20T00:56:48.399Z,9.90
2022-09-20T00:59:18.629Z,9.80
2022-09-20T01:01:50.833Z,9.80
2022-09-20T01:04:22.008Z,9.80
2022-09-20T01:06:51.436Z,9.80
2022-09-20T01:09:18.159Z,9.80
2022-09-20T01:11:46.320Z,9.80
2022-09-20T01:14:15.356Z,9.80
2022-09-20T01:16:42.209Z,9.80
2022-09-20T01:19:26.802Z,9.70
2022-09-20T01:21:53.909Z,9.70
2022-09-20T01:24:28.841Z,9.70
2022-09-20T01:27:03.150Z,9.60
2022-09-20T01:29:29.729Z,9.70
2022-09-20T01:32:01.467Z,9.60
2022-09-20T01:34:34.645Z,9.50
2022-09-20T01:37:10.257Z,9.50
2022-09-20T01:39:52.363Z,9.50
2022-09-20T01:42:21.685Z,9.50
2022-09-20T01:44:57.411Z,9.50
2022-09-20T01:47:58.182Z,9.50
2022-09-20T01:51:03.275Z,9.50
2022-09-20T01:53:40.669Z,9.40
2022-09-20T01:56:28.698Z,9.50
2022-09-20T01:59:48.793Z,9.50
2022-09-20T02:02:52.145Z,9.40
2022-09-20T02:05:51.136Z,9.40
2022-09-20T02:08:30.646Z,9.30
2022-09-20T02:11:11.324Z,9.30
2022-09-20T02:13:37.960Z,9.30
2022-09-20T02:16:19.943Z,9.20
2022-09-20T02:19:05.645Z,9.20
2022-09-20T02:21:51.348Z,9.20
2022-09-20T02:24:55.161Z,9.20
2022-09-20T02:27:37.208Z,9.10
2022-09-20T02:30:15.034Z,9.10
2022-09-20T02:33:14.918Z,9.10
2022-09-20T02:35:53.093Z,9.10
2022-09-20T02:38:25.517Z,9.10
2022-09-20T02:41:23.337Z,9.00
2022-09-20T02:44:07.339Z,9.00
2022-09-20T02:47:05.854Z,9.00
2022-09-20T02:49:50.916Z,9.00
2022-09-20T02:52:36.395Z,9.00
2022-09-20T02:55:11.081Z,9.00
2022-09-20T02:57:44.029Z,8.90
2022-09-20T03:00:16.779Z,8.90
2022-09-20T03:03:08.507Z,8.80
2022-09-20T03:05:57.391Z,8.80
2022-09-20T03:08:33.871Z,8.80
2022-09-20T03:11:27.837Z,8.80
2022-09-20T03:14:15.773Z,8.70
2022-09-20T03:17:02.338Z,8.70
2022-09-20T03:20:03.715Z,8.80
2022-09-20T03:22:54.639Z,8.70
2022-09-20T03:25:24.152Z,8.80
2022-09-20T03:28:11.714Z,8.70
2022-09-20T03:31:08.088Z,8.70
2022-09-20T03:33:53.117Z,8.70
2022-09-20T03:36:58.239Z,8.70
2022-09-20T03:39:46.977Z,8.60
2022-09-20T03:42:18.072Z,8.60
2022-09-20T03:45:19.563Z,8.60
2022-09-20T03:48:23.996Z,8.60
2022-09-20T03:51:23.759Z,8.70
2022-09-20T03:54:10.741Z,8.60
2022-09-20T03:56:56.419Z,8.60
2022-09-20T03:59:57.547Z,8.60
2022-09-20T04:02:50.767Z,8.50
2022-09-20T04:05:23.618Z,8.50
2022-09-20T04:08:08.398Z,8.50
2022-09-20T04:11:06.032Z,8.50
2022-09-20T04:13:37.387Z,8.50
2022-09-20T04:16:39.637Z,8.50
2022-09-20T04:19:13.376Z,8.40
2022-09-20T04:21:48.499Z,8.40
2022-09-20T04:24:43.493Z,8.40
2022-09-20T04:27:30.053Z,8.40
2022-09-20T04:30:05.476Z,8.40
2022-09-20T04:32:35.216Z,8.40
2022-09-20T04:35:48.993Z,8.40
2022-09-20T04:38:19.562Z,8.40
2022-09-20T04:41:12.090Z,8.40
2022-09-20T04:44:00.557Z,8.30
2022-09-20T04:46:45.338Z,8.30
2022-09-20T04:49:40.092Z,8.20
2022-09-20T04:52:44.439Z,8.20
2022-09-20T04:55:46.230Z,8.20
2022-09-20T04:58:37.489Z,8.20
2022-09-20T05:01:07.023Z,8.20
2022-09-20T05:03:55.801Z,8.20
2022-09-20T05:07:16.746Z,8.20
2022-09-20T05:09:46.441Z,8.20
2022-09-20T05:12:31.918Z,8.20
2022-09-20T05:15:24.169Z,8.20
2022-09-20T05:18:25.626Z,8.20
2022-09-20T05:21:14.136Z,8.20
2022-09-20T05:23:55.822Z,8.20
2022-09-20T05:26:33.029Z,8.20
2022-09-20T05:29:18.506Z,8.20
2022-09-20T05:32:23.279Z,8.20
2022-09-20T05:35:04.756Z,8.20
2022-09-20T05:37:46.483Z,8.10
2022-09-20T05:40:22.842Z,8.10
2022-09-20T05:43:02.352Z,8.20
2022-09-20T05:46:10.587Z,8.20
2022-09-20T05:48:45.561Z,8.20
2022-09-20T05:51:56.729Z,8.20
2022-09-20T05:55:08.064Z,8.20
2022-09-20T05:58:01.254Z,8.20
2022-09-20T06:00:36.013Z,8.20
2022-09-20T06:03:36.748Z,8.20
2022-09-20T06:06:18.167Z,8.20
2022-09-20T06:08:53.789Z,8.20
2022-09-20T06:11:47.709Z,8.20
2022-09-20T06:14:34.720Z,8.20
2022-09-20T06:17:19.573Z,8.30
2022-09-20T06:19:54.359Z,8.30
2022-09-20T06:22:33.225Z,8.30
2022-09-20T06:25:09.137Z,8.30
2022-09-20T06:27:43.993Z,8.40
2022-09-20T06:30:41.525Z,8.50
2022-09-20T06:33:08.569Z,8.50
2022-09-20T06:36:38.004Z,8.50
2022-09-20T06:39:41.505Z,8.50
2022-09-20T06:42:10.209Z,8.60
2022-09-20T06:44:41.246Z,8.60
2022-09-20T06:47:11.010Z,8.70
2022-09-20T06:49:39.353Z,8.70
2022-09-20T06:52:07.469Z,8.70
2022-09-20T06:54:34.502Z,8.70
2022-09-20T06:57:04.861Z,8.70
2022-09-20T06:59:31.939Z,8.70
2022-09-20T07:01:58.913Z,8.80
2022-09-20T07:04:26.703Z,8.90
2022-09-20T07:07:07.338Z,8.90
2022-09-20T07:09:35.923Z,9.00
2022-09-20T07:12:02.721Z,9.00
2022-09-20T07:14:29.572Z,9.10
2022-09-20T07:16:56.270Z,9.10
2022-09-20T07:19:23.445Z,9.20
2022-09-20T07:21:50.194Z,9.20
2022-09-20T07:24:17.008Z,9.30
2022-09-20T07:27:01.984Z,9.30
2022-09-20T07:29:29.751Z,9.40
2022-09-20T07:31:56.870Z,9.30
2022-09-20T07:34:24.041Z,9.40
2022-09-20T07:36:51.394Z,9.40
2022-09-20T07:39:18.565Z,9.50
2022-09-20T07:41:48.459Z,9.50
2022-09-20T07:44:22.170Z,9.50
2022-09-20T07:46:53.924Z,9.60
2022-09-20T07:49:21.924Z,9.60
2022-09-20T07:51:49.426Z,9.70
2022-09-20T07:54:16.667Z,9.80
2022-09-20T07:56:44.809Z,9.80
2022-09-20T07:59:11.865Z,9.80
2022-09-20T08:01:40.501Z,9.90
2022-09-20T08:04:08.839Z,9.90
2022-09-20T08:06:44.052Z,9.90
2022-09-20T08:09:12.039Z,10.00
2022-09-20T08:11:40.109Z,10.00
2022-09-20T08:14:17.468Z,10.00
2022-09-20T08:16:47.320Z,10.10
2022-09-20T08:19:18.927Z,10.20
2022-09-20T08:21:45.793Z,10.20
2022-09-20T08:24:12.996Z,10.30
2022-09-20T08:26:39.680Z,10.30
2022-09-20T08:29:06.879Z,10.40
2022-09-20T08:31:36.869Z,10.40
2022-09-20T08:34:06.484Z,10.50
2022-09-20T08:36:36.967Z,10.50
2022-09-20T08:42:14.759Z,10.70
2022-09-20T08:45:01.164Z,10.80
2022-09-20T08:47:35.719Z,10.90
2022-09-20T08:50:09.784Z,11.00
2022-09-20T08:52:39.867Z,11.00
2022-09-20T08:55:16.834Z,11.10
2022-09-20T08:57:44.763Z,11.20
2022-09-20T09:00:21.078Z,11.40
2022-09-20T09:02:51.718Z,11.40
2022-09-20T09:05:33.435Z,11.50
2022-09-20T09:08:04.601Z,11.50
2022-09-20T09:10:42.600Z,11.50
2022-09-20T09:13:20.550Z,11.60
2022-09-20T09:15:53.555Z,11.70
2022-09-20T09:18:20.351Z,11.80
2022-09-20T09:20:47.507Z,11.90
2022-09-20T09:23:26.484Z,12.00
2022-09-20T09:25:55.011Z,12.10
2022-09-20T09:28:26.696Z,12.20
2022-09-20T09:31:11.473Z,12.20
2022-09-20T09:33:44.169Z,12.30
2022-09-20T09:36:15.032Z,12.30
2022-09-20T09:38:47.067Z,12.40
2022-09-20T09:41:35.280Z,12.50
2022-09-20T09:44:04.828Z,12.50
2022-09-20T09:46:33.627Z,12.60
2022-09-20T09:49:19.341Z,12.60
2022-09-20T09:52:19.638Z,12.70
2022-09-20T09:54:50.511Z,12.80
2022-09-20T09:57:26.011Z,12.80
2022-09-20T10:00:18.022Z,12.90
2022-09-20T10:02:53.650Z,13.10
2022-09-20T10:05:30.411Z,13.10
2022-09-20T10:08:31.241Z,13.20
2022-09-20T10:11:20.030Z,13.20
2022-09-20T10:14:11.352Z,13.30
2022-09-20T10:16:56.995Z,13.30
2022-09-20T10:19:50.783Z,13.30
2022-09-20T10:23:21.346Z,13.40
2022-09-20T10:25:51.216Z,13.40
2022-09-20T10:28:23.948Z,13.50
2022-09-20T10:31:07.549Z,13.60
2022-09-20T10:33:46.454Z,13.70
2022-09-20T10:36:28.494Z,13.70
2022-09-20T10:39:05.916Z,13.70
2022-09-20T10:41:57.782Z,13.70
2022-09-20T10:44:55.751Z,13.80
2022-09-20T10:47:34.153Z,13.80
2022-09-20T10:50:33.943Z,13.80
2022-09-20T10:53:09.095Z,13.90
2022-09-20T10:56:03.010Z,13.90
2022-09-20T10:58:47.197Z,14.00
2022-09-20T11:01:28.553Z,14.00
2022-09-20T11:04:21.749Z,14.10
2022-09-20T11:07:05.662Z,14.10
2022-09-20T11:09:42.241Z,14.10
2022-09-20T11:12:32.424Z,14.20
2022-09-20T11:15:04.616Z,14.30
2022-09-20T11:17:39.037Z,14.30
2022-09-20T11:20:33.282Z,14.40
2022-09-20T11:23:25.210Z,14.40
2022-09-20T11:26:04.770Z,14.50
2022-09-20T11:28:45.923Z,14.50
2022-09-20T11:31:30.860Z,14.60
2022-09-20T11:34:05.099Z,14.70
2022-09-20T11:36:39.620Z,14.70
2022-09-20T11:39:21.161Z,14.70
2022-09-20T11:41:52.145Z,14.70
2022-09-20T11:44:20.419Z,14.80
2022-09-20T11:46:52.983Z,14.80
2022-09-20T11:49:24.537Z,14.80
2022-09-20T11:51:57.761Z,14.90
2022-09-20T11:54:56.442Z,14.90
2022-09-20T11:57:24.880Z,15.00
2022-09-20T12:00:05.276Z,15.00
2022-09-20T12:02:31.987Z,15.10
2022-09-20T12:04:59.310Z,15.10
2022-09-20T12:07:41.778Z,15.10
2022-09-20T12:10:24.829Z,15.20
2022-09-20T12:13:00.948Z,15.20
2022-09-20T12:15:34.575Z,15.30
2022-09-20T12:18:12.408Z,15.40
2022-09-20T12:20:39.064Z,15.50
2022-09-20T12:23:43.196Z,15.50
2022-09-20T12:26:19.088Z,15.60
2022-09-20T12:28:51.608Z,15.50
2022-09-20T12:31:32.181Z,15.60
2022-09-20T12:34:03.463Z,15.70
2022-09-20T12:36:34.212Z,15.90
2022-09-20T12:39:21.867Z,15.90
2022-09-20T12:41:56.832Z,15.80
2022-09-20T12:44:35.791Z,15.80
2022-09-20T12:47:05.955Z,15.70
2022-09-20T12:49:56.169Z,15.70
2022-09-20T12:52:53.331Z,15.70
2022-09-20T12:55:43.848Z,15.70
2022-09-20T12:58:14.293Z,15.90
2022-09-20T13:01:14.082Z,15.90
2022-09-20T13:03:44.018Z,16.10
2022-09-20T13:06:19.558Z,16.20
2022-09-20T13:09:08.528Z,16.20
2022-09-20T13:11:42.290Z,16.10
2022-09-20T13:14:22.641Z,16.00
2022-09-20T13:16:49.216Z,15.80
2022-09-20T13:19:25.901Z,15.80
2022-09-20T13:22:09.345Z,15.80
2022-09-20T13:24:42.101Z,15.70
2022-09-20T13:27:19.388Z,15.70
2022-09-20T13:29:46.405Z,15.70
2022-09-20T13:32:26.766Z,15.70
2022-09-20T13:35:06.610Z,15.70
2022-09-20T13:37:34.672Z,15.60
2022-09-20T13:40:02.570Z,15.70
2022-09-20T13:42:30.660Z,15.80
2022-09-20T13:44:58.803Z,15.90
2022-09-20T13:47:31.470Z,16.00
2022-09-20T13:50:28.364Z,15.90
2022-09-20T13:52:58.420Z,15.90
2022-09-20T13:55:28.770Z,15.90
2022-09-20T13:57:56.747Z,16.00
2022-09-20T14:00:25.266Z,16.00
2022-09-20T14:02:54.864Z,16.00
2022-09-20T14:05:26.033Z,16.10
2022-09-20T14:07:53.614Z,16.00
2022-09-20T14:10:31.680Z,16.00
2022-09-20T14:13:08.039Z,15.90
2022-09-20T14:15:38.244Z,15.90
2022-09-20T14:18:07.308Z,15.90
2022-09-20T14:20:34.722Z,16.00
2022-09-20T14:23:01.727Z,16.10
2022-09-20T14:25:28.850Z,16.10
2022-09-20T14:28:18.679Z,16.00
2022-09-20T14:30:47.692Z,15.90
2022-09-20T14:33:18.230Z,15.90
2022-09-20T14:35:51.724Z,15.90
2022-09-20T14:38:26.318Z,15.90
2022-09-20T14:40:53.238Z,15.90
2022-09-20T14:43:32.440Z,15.90
2022-09-20T14:46:05.529Z,15.90
2022-09-20T14:48:38.130Z,16.00
2022-09-20T14:51:16.285Z,15.90
2022-09-20T14:53:44.238Z,15.90
2022-09-20T14:56:13.036Z,15.90
2022-09-20T14:59:01.541Z,15.90
2022-09-20T15:01:28.290Z,15.90
2022-09-20T15:03:57.100Z,15.80
2022-09-20T15:06:24.571Z,15.80
2022-09-20T15:08:51.328Z,15.80
2022-09-20T15:11:19.422Z,15.80
2022-09-20T15:13:46.479Z,15.80
2022-09-20T15:16:14.843Z,15.80
2022-09-20T15:18:43.363Z,15.80
2022-09-20T15:21:11.308Z,15.70
2022-09-20T15:23:39.338Z,15.70
2022-09-20T15:26:07.269Z,15.70
2022-09-20T15:28:34.583Z,15.60
2022-09-20T15:31:01.222Z,15.60
2022-09-20T15:33:30.604Z,15.60
2022-09-20T15:35:57.323Z,15.60
2022-09-20T15:38:26.715Z,15.50
2022-09-20T15:40:54.321Z,15.50
2022-09-20T15:43:24.273Z,15.50
2022-09-20T15:45:56.123Z,15.50
2022-09-20T15:48:25.486Z,15.50
2022-09-20T15:51:04.108Z,15.50
2022-09-20T15:53:35.758Z,15.40
2022-09-20T15:56:05.761Z,15.40
2022-09-20T15:58:36.192Z,15.40
2022-09-20T16:01:08.574Z,15.40
2022-09-20T16:03:36.423Z,15.30
2022-09-20T16:06:05.967Z,15.30
2022-09-20T16:08:40.943Z,15.30
2022-09-20T16:11:09.373Z,15.30
2022-09-20T16:13:38.956Z,15.30
2022-09-20T16:16:07.604Z,15.30
2022-09-20T16:18:54.750Z,15.30
2022-09-20T16:21:21.976Z,15.20
2022-09-20T16:23:51.475Z,15.20
2022-09-20T16:26:19.640Z,15.20
2022-09-20T16:28:47.797Z,15.10
2022-09-20T16:31:37.272Z,15.10
2022-09-20T16:34:05.810Z,15.00
2022-09-20T16:36:33.400Z,15.00
2022-09-20T16:39:01.124Z,15.00
2022-09-20T16:41:28.652Z,14.90
2022-09-20T16:43:56.013Z,14.90
2022-09-20T16:46:27.405Z,14.90
2022-09-20T16:49:00.970Z,14.80
2022-09-20T16:51:36.431Z,14.70
2022-09-20T16:54:12.912Z,14.70
2022-09-20T16:56:45.257Z,14.60
2022-09-20T16:59:13.853Z,14.50
2022-09-20T17:01:40.723Z,14.50
2022-09-20T17:04:08.667Z,14.40
2022-09-20T17:06:37.379Z,14.40
2022-09-20T17:09:06.091Z,14.30
2022-09-20T17:11:35.831Z,14.30
2022-09-20T17:14:02.867Z,14.20
2022-09-20T17:16:32.046Z,14.10
2022-09-20T17:19:07.355Z,14.00
2022-09-20T17:21:39.030Z,13.90
2022-09-20T17:24:07.176Z,13.80
2022-09-20T17:26:40.215Z,13.80
2022-09-20T17:29:09.759Z,13.70
2022-09-20T17:31:39.093Z,13.70
2022-09-20T17:34:09.452Z,13.60
2022-09-20T17:36:42.233Z,13.60
2022-09-20T17:39:12.037Z,13.50
2022-09-20T17:41:44.752Z,13.40
2022-09-20T17:44:12.168Z,13.40
2022-09-20T17:46:40.998Z,13.30
2022-09-20T17:49:13.019Z,13.30
2022-09-20T17:51:45.308Z,13.20
2022-09-20T17:54:15.719Z,13.10
2022-09-20T17:56:46.202Z,13.10
2022-09-20T17:59:16.172Z,13.00
2022-09-20T18:01:44.303Z,13.00
2022-09-20T18:04:11.282Z,12.90
2022-09-20T18:06:45.021Z,12.80
2022-09-20T18:09:17.207Z,12.80
2022-09-20T18:11:49.780Z,12.80
2022-09-20T18:14:23.192Z,12.70
2022-09-20T18:16:57.717Z,12.70
2022-09-20T18:19:24.354Z,12.80
2022-09-20T18:21:51.377Z,12.80
2022-09-20T18:24:18.055Z,12.80
2022-09-20T18:26:44.721Z,12.80
2022-09-20T18:29:17.887Z,12.80
2022-09-20T18:31:49.696Z,12.80
2022-09-20T18:34:25.416Z,12.80
2022-09-20T18:36:56.854Z,12.90
2022-09-20T18:39:25.189Z,12.80
2022-09-20T18:41:53.056Z,12.80
2022-09-20T18:44:20.819Z,12.80
2022-09-20T18:46:47.858Z,12.80
2022-09-20T18:49:16.741Z,12.80
2022-09-20T18:51:44.861Z,12.70
2022-09-20T18:54:11.920Z,12.80
2022-09-20T18:56:40.394Z,12.80
2022-09-20T18:59:13.298Z,12.80
2022-09-20T19:01:55.217Z,12.80
2022-09-20T19:05:08.489Z,12.80
2022-09-20T19:07:43.002Z,12.80
2022-09-20T19:10:21.640Z,12.80
2022-09-20T19:13:00.257Z,12.90
2022-09-20T19:15:41.928Z,12.90
2022-09-20T19:18:24.206Z,12.90
2022-09-20T19:20:58.751Z,12.90
2022-09-20T19:24:02.502Z,12.90
2022-09-20T19:26:32.427Z,12.80
2022-09-20T19:29:00.638Z,12.80
2022-09-20T19:31:30.577Z,12.70
2022-09-20T19:33:59.801Z,12.70
2022-09-20T19:37:05.612Z,12.70
2022-09-20T19:40:00.439Z,12.70
2022-09-20T19:42:38.886Z,12.70
2022-09-20T19:45:34.657Z,12.60
2022-09-20T19:48:25.759Z,12.60
2022-09-20T19:50:53.267Z,12.70
2022-09-20T19:53:27.629Z,12.70
2022-09-20T19:55:59.858Z,12.70
2022-09-20T19:58:26.873Z,12.70
2022-09-20T20:00:53.967Z,12.80
2022-09-20T20:03:23.574Z,12.80
2022-09-20T20:06:07.066Z,12.80
2022-09-20T20:08:48.789Z,12.80
2022-09-20T20:11:39.021Z,12.90
2022-09-20T20:14:08.616Z,12.90
2022-09-20T20:17:12.376Z,12.90
2022-09-20T20:20:10.303Z,12.90
2022-09-20T20:22:58.718Z,12.90
2022-09-20T20:25:35.129Z,13.00
2022-09-20T20:28:01.973Z,13.00
2022-09-20T20:30:29.730Z,13.00
2022-09-20T20:33:00.607Z,13.00
2022-09-20T20:35:27.348Z,13.00
2022-09-20T20:37:54.203Z,13.00
2022-09-20T20:40:20.975Z,13.00
2022-09-20T20:42:47.872Z,13.00
2022-09-20T20:45:14.795Z,13.00
2022-09-20T20:47:42.605Z,13.00
2022-09-20T20:50:11.911Z,13.00
2022-09-20T20:52:39.221Z,13.00
2022-09-20T20:55:06.262Z,13.00
2022-09-20T20:57:34.248Z,13.00
2022-09-20T21:00:00.951Z,13.10
2022-09-20T21:02:27.577Z,13.10
2022-09-20T21:04:54.206Z,13.10
2022-09-20T21:07:21.438Z,13.00
2022-09-20T21:09:48.051Z,13.00
2022-09-20T21:12:14.775Z,13.00
2022-09-20T21:14:41.416Z,13.00
2022-09-20T21:17:08.323Z,13.00
2022-09-20T21:19:34.911Z,13.00
2022-09-20T21:22:01.508Z,12.90
2022-09-20T21:24:28.115Z,12.90
2022-09-20T21:26:54.701Z,12.90
2022-09-20T21:29:21.345Z,12.90
2022-09-20T21:31:47.986Z,12.90
2022-09-20T21:34:15.753Z,12.90
2022-09-20T21:36:43.916Z,12.90
2022-09-20T21:39:11.316Z,12.90
2022-09-20T21:41:39.154Z,12.90
2022-09-20T21:44:07.282Z,12.80
2022-09-20T21:46:37.065Z,12.80
2022-09-20T21:49:06.104Z,12.80
2022-09-20T21:51:33.390Z,12.80
2022-09-20T21:54:01.358Z,12.80
2022-09-20T21:56:36.690Z,12.80
2022-09-20T21:59:06.209Z,12.70
2022-09-20T22:01:36.636Z,12.70
2022-09-20T22:04:11.825Z,12.70
2022-09-20T22:06:43.280Z,12.70
2022-09-20T22:09:15.083Z,12.70
2022-09-20T22:11:47.473Z,12.70
2022-09-20T22:14:16.489Z,12.60
2022-09-20T22:16:44.724Z,12.50
2022-09-20T22:19:13.741Z,12.50
2022-09-20T22:21:42.829Z,12.50
2022-09-20T22:24:11.265Z,12.50
2022-09-20T22:26:43.350Z,12.50
2022-09-20T22:29:10.779Z,12.50
2022-09-20T22:31:44.664Z,12.50
2022-09-20T22:34:14.490Z,12.50
2022-09-20T22:36:41.642Z,12.50
2022-09-20T22:39:10.811Z,12.50
2022-09-20T22:41:38.772Z,12.50
2022-09-20T22:44:06.126Z,12.40
2022-09-20T22:46:33.767Z,12.40
2022-09-20T22:49:00.469Z,12.50
2022-09-20T22:51:30.930Z,12.50
2022-09-20T22:53:57.701Z,12.50
2022-09-20T22:56:29.650Z,12.50
2022-09-20T22:59:00.072Z,12.40
2022-09-20T23:01:30.285Z,12.40
2022-09-20T23:03:58.521Z,12.50
2022-09-20T23:06:28.285Z,12.40
2022-09-20T23:08:57.661Z,12.50
2022-09-20T23:11:25.233Z,12.40
2022-09-20T23:13:57.482Z,12.40
2022-09-20T23:16:26.774Z,12.40
2022-09-20T23:18:54.355Z,12.40
2022-09-20T23:21:21.617Z,12.40
2022-09-20T23:23:53.468Z,12.40
2022-09-20T23:26:20.944Z,12.40
2022-09-20T23:28:53.918Z,12.40
2022-09-20T23:31:20.660Z,12.40
2022-09-20T23:33:52.777Z,12.40
2022-09-20T23:36:20.455Z,12.40
2022-09-20T23:38:47.826Z,12.40
2022-09-20T23:41:17.432Z,12.30
2022-09-20T23:43:44.907Z,12.30
2022-09-20T23:46:13.962Z,12.30
2022-09-20T23:48:44.226Z,12.30
2022-09-20T23:51:14.836Z,12.20
2022-09-20T23:53:42.502Z,12.20
2022-09-20T23:56:10.169Z,12.20
2022-09-20T23:58:37.638Z,12.10
